createdAt,value
2023-04-06T00:00:25.869Z,9.984
2023-04-06T00:01:26.385Z,9.939
2023-04-06T00:02:23.727Z,9.888
2023-04-06T00:03:23.708Z,9.883
2023-04-06T00:04:23.514Z,9.845
2023-04-06T00:05:23.790Z,9.815
2023-04-06T00:06:23.846Z,9.810
2023-04-06T00:07:23.604Z,9.779
2023-04-06T00:08:23.000Z,9.784
2023-04-06T00:09:24.503Z,9.784
2023-04-06T00:10:23.780Z,9.765
2023-04-06T00:11:22.665Z,9.744
2023-04-06T00:12:23.842Z,9.75
2023-04-06T00:13:22.963Z,9.744
2023-04-06T00:14:23.200Z,9.734
2023-04-06T00:15:23.338Z,9.729
2023-04-06T00:16:24.965Z,9.710
2023-04-06T00:17:22.935Z,9.659
2023-04-06T00:18:23.929Z,9.644
2023-04-06T00:19:23.813Z,9.604
2023-04-06T00:20:24.067Z,9.560
2023-04-06T00:21:23.238Z,9.550
2023-04-06T00:22:23.475Z,9.505
2023-04-06T00:23:23.657Z,9.472
2023-04-06T00:24:22.981Z,9.453
2023-04-06T00:25:24.005Z,9.444
2023-04-06T00:26:22.968Z,9.423
2023-04-06T00:27:23.693Z,9.398
2023-04-06T00:28:22.937Z,9.305
2023-04-06T00:29:23.956Z,9.293
2023-04-06T00:30:23.268Z,9.284
2023-04-06T00:31:23.141Z,9.254
2023-04-06T00:32:23.649Z,9.255
2023-04-06T00:33:23.161Z,9.239
2023-04-06T00:34:23.933Z,9.215
2023-04-06T00:35:23.385Z,9.215
2023-04-06T00:36:23.354Z,9.182
2023-04-06T00:37:23.271Z,9.177
2023-04-06T00:38:23.680Z,9.189
2023-04-06T00:39:23.267Z,9.149
2023-04-06T00:40:23.646Z,9.137
2023-04-06T00:41:23.194Z,9.095
2023-04-06T00:42:23.391Z,9.085
2023-04-06T00:43:22.738Z,9.029
2023-04-06T00:44:23.671Z,9.024
2023-04-06T00:45:23.599Z,8.979
2023-04-06T00:46:24.651Z,8.960
2023-04-06T00:47:23.516Z,8.949
2023-04-06T00:48:23.303Z,8.914
2023-04-06T00:49:23.207Z,8.914
2023-04-06T00:50:23.517Z,8.883
2023-04-06T00:51:23.507Z,8.868
2023-04-06T00:52:23.336Z,8.810
2023-04-06T00:53:23.360Z,8.795
2023-04-06T00:54:24.226Z,8.770
2023-04-06T00:55:23.225Z,8.770
2023-04-06T00:56:22.823Z,8.770
2023-04-06T00:57:23.145Z,8.715
2023-04-06T00:58:22.942Z,8.704
2023-04-06T00:59:24.293Z,8.694
2023-04-06T01:00:24.473Z,8.671
2023-04-06T01:02:26.128Z,8.654
2023-04-06T01:03:22.819Z,8.654
2023-04-06T01:04:23.430Z,8.644
2023-04-06T01:05:23.197Z,8.625
2023-04-06T01:06:23.466Z,8.609
2023-04-06T01:07:23.158Z,8.585
2023-04-06T01:08:23.619Z,8.569
2023-04-06T01:09:23.887Z,8.545
2023-04-06T01:10:24.322Z,8.520
2023-04-06T01:11:23.413Z,8.5
2023-04-06T01:12:23.581Z,8.479
2023-04-06T01:13:23.408Z,8.460
2023-04-06T01:14:22.687Z,8.394
2023-04-06T01:15:23.616Z,8.379
2023-04-06T01:16:23.819Z,8.326
2023-04-06T01:17:23.010Z,8.289
2023-04-06T01:18:24.341Z,8.279
2023-04-06T01:19:23.564Z,8.25
2023-04-06T01:20:23.811Z,8.225
2023-04-06T01:21:23.037Z,8.210
2023-04-06T01:22:23.654Z,8.187
2023-04-06T01:23:23.100Z,8.184
2023-04-06T01:24:23.172Z,8.154
2023-04-06T01:25:23.113Z,8.142
2023-04-06T01:26:23.572Z,8.114
2023-04-06T01:27:23.162Z,8.104
2023-04-06T01:28:22.610Z,8.131
2023-04-06T01:29:23.396Z,8.131
2023-04-06T01:30:23.314Z,8.154
2023-04-06T01:31:23.658Z,8.119
2023-04-06T01:32:23.638Z,8.109
2023-04-06T01:33:23.569Z,8.090
2023-04-06T01:34:23.062Z,8.079
2023-04-06T01:35:23.648Z,8.060
2023-04-06T01:36:23.873Z,8.050
2023-04-06T01:37:23.384Z,8.039
2023-04-06T01:38:23.041Z,8.020
2023-04-06T01:39:23.849Z,8.029
2023-04-06T01:40:23.821Z,8.024
2023-04-06T01:41:23.525Z,8
2023-04-06T01:42:23.292Z,7.985
2023-04-06T01:43:24.066Z,7.965
2023-04-06T01:44:23.805Z,7.934
2023-04-06T01:45:23.605Z,7.912
2023-04-06T01:46:22.985Z,7.874
2023-04-06T01:47:23.161Z,7.828
2023-04-06T01:48:22.981Z,7.815
2023-04-06T01:49:23.609Z,7.822
2023-04-06T01:50:23.319Z,7.800
2023-04-06T01:51:23.275Z,7.782
2023-04-06T01:52:22.991Z,7.760
2023-04-06T01:53:23.275Z,7.744
2023-04-06T01:54:23.612Z,7.710
2023-04-06T01:55:23.397Z,7.724
2023-04-06T01:56:23.046Z,7.719
2023-04-06T01:57:23.427Z,7.698
2023-04-06T01:58:23.602Z,7.695
2023-04-06T01:59:24.133Z,7.678
2023-04-06T02:00:29.902Z,7.683
2023-04-06T02:01:23.141Z,7.671
2023-04-06T02:02:23.803Z,7.655
2023-04-06T02:03:24.833Z,7.655
2023-04-06T02:04:23.596Z,7.655
2023-04-06T02:05:22.978Z,7.620
2023-04-06T02:06:23.136Z,7.605
2023-04-06T02:07:23.314Z,7.610
2023-04-06T02:08:23.844Z,7.565
2023-04-06T02:09:24.110Z,7.545
2023-04-06T02:10:23.401Z,7.559
2023-04-06T02:11:24.170Z,7.539
2023-04-06T02:12:23.293Z,7.510
2023-04-06T02:13:23.263Z,7.5
2023-04-06T02:14:23.700Z,7.465
2023-04-06T02:15:24.360Z,7.449
2023-04-06T02:16:24.102Z,7.420
2023-04-06T02:17:23.683Z,7.400
2023-04-06T02:18:24.264Z,7.368
2023-04-06T02:19:23.779Z,7.328
2023-04-06T02:20:23.815Z,7.328
2023-04-06T02:21:23.815Z,7.307
2023-04-06T02:22:23.837Z,7.349
2023-04-06T02:23:23.468Z,7.373
2023-04-06T02:24:23.794Z,7.379
2023-04-06T02:25:23.089Z,7.400
2023-04-06T02:26:24.305Z,7.405
2023-04-06T02:27:24.062Z,7.389
2023-04-06T02:28:23.277Z,7.394
2023-04-06T02:29:23.664Z,7.400
2023-04-06T02:30:24.640Z,7.400
2023-04-06T02:31:23.096Z,7.405
2023-04-06T02:32:23.330Z,7.409
2023-04-06T02:33:23.803Z,7.414
2023-04-06T02:34:24.111Z,7.434
2023-04-06T02:35:23.381Z,7.429
2023-04-06T02:36:23.172Z,7.429
2023-04-06T02:37:23.197Z,7.460
2023-04-06T02:38:24.191Z,7.460
2023-04-06T02:39:23.298Z,7.469
2023-04-06T02:40:24.111Z,7.465
2023-04-06T02:41:23.647Z,7.434
2023-04-06T02:42:23.818Z,7.449
2023-04-06T02:43:23.306Z,7.383
2023-04-06T02:44:23.344Z,7.361
2023-04-06T02:45:23.204Z,7.361
2023-04-06T02:46:23.487Z,7.349
2023-04-06T02:47:23.738Z,7.361
2023-04-06T02:48:23.507Z,7.379
2023-04-06T02:49:23.677Z,7.377
2023-04-06T02:50:23.644Z,7.339
2023-04-06T02:51:23.557Z,7.315
2023-04-06T02:52:23.849Z,7.295
2023-04-06T02:53:22.386Z,7.315
2023-04-06T02:54:23.369Z,7.300
2023-04-06T02:55:23.528Z,7.300
2023-04-06T02:56:23.484Z,7.295
2023-04-06T02:57:23.450Z,7.264
2023-04-06T02:58:23.380Z,7.275
2023-04-06T02:59:23.862Z,7.238
2023-04-06T03:00:24.567Z,7.231
2023-04-06T03:01:24.078Z,7.215
2023-04-06T03:02:23.188Z,7.206
2023-04-06T03:03:23.265Z,7.177
2023-04-06T03:04:23.599Z,7.149
2023-04-06T03:05:23.645Z,7.151
2023-04-06T03:06:23.941Z,7.151
2023-04-06T03:07:23.643Z,7.119
2023-04-06T03:08:23.437Z,7.085
2023-04-06T03:09:23.615Z,7.083
2023-04-06T03:10:24.084Z,7.092
2023-04-06T03:11:23.549Z,7.074
2023-04-06T03:12:23.935Z,7.059
2023-04-06T03:13:23.746Z,7.054
2023-04-06T03:14:24.141Z,7.025
2023-04-06T03:15:24.196Z,7.005
2023-04-06T03:16:23.632Z,6.989
2023-04-06T03:17:23.765Z,6.969
2023-04-06T03:18:23.226Z,6.985
2023-04-06T03:19:23.064Z,6.989
2023-04-06T03:20:23.606Z,6.980
2023-04-06T03:21:23.450Z,6.989
2023-04-06T03:22:22.658Z,7.010
2023-04-06T03:23:23.224Z,6.989
2023-04-06T03:24:23.249Z,6.994
2023-04-06T03:25:23.067Z,7
2023-04-06T03:26:23.355Z,6.985
2023-04-06T03:27:23.956Z,6.960
2023-04-06T03:28:23.478Z,6.949
2023-04-06T03:29:23.658Z,6.925
2023-04-06T03:30:23.307Z,6.914
2023-04-06T03:31:23.138Z,6.900
2023-04-06T03:32:23.193Z,6.855
2023-04-06T03:33:23.435Z,6.849
2023-04-06T03:34:22.835Z,6.827
2023-04-06T03:35:23.443Z,6.816
2023-04-06T03:36:23.716Z,6.800
2023-04-06T03:37:23.367Z,6.760
2023-04-06T03:38:23.157Z,6.769
2023-04-06T03:39:23.871Z,6.735
2023-04-06T03:40:24.026Z,6.719
2023-04-06T03:41:23.302Z,6.719
2023-04-06T03:42:23.457Z,6.688
2023-04-06T03:43:22.856Z,6.678
2023-04-06T03:44:23.562Z,6.671
2023-04-06T03:45:23.300Z,6.678
2023-04-06T03:46:23.232Z,6.637
2023-04-06T03:47:23.205Z,6.665
2023-04-06T03:48:23.132Z,6.677
2023-04-06T03:49:23.193Z,6.625
2023-04-06T03:50:23.530Z,6.594
2023-04-06T03:51:23.641Z,6.590
2023-04-06T03:52:23.330Z,6.579
2023-04-06T03:53:23.248Z,6.565
2023-04-06T03:54:23.473Z,6.559
2023-04-06T03:55:24.231Z,6.594
2023-04-06T03:56:24.237Z,6.614
2023-04-06T03:57:23.245Z,6.599
2023-04-06T03:58:22.985Z,6.619
2023-04-06T03:59:23.531Z,6.599
2023-04-06T04:00:24.280Z,6.574
2023-04-06T04:01:23.394Z,6.594
2023-04-06T04:02:23.795Z,6.579
2023-04-06T04:03:23.719Z,6.534
2023-04-06T04:04:23.753Z,6.525
2023-04-06T04:05:24.079Z,6.514
2023-04-06T04:06:24.422Z,6.539
2023-04-06T04:07:23.584Z,6.519
2023-04-06T04:08:23.674Z,6.530
2023-04-06T04:09:24.092Z,6.494
2023-04-06T04:10:24.940Z,6.5
2023-04-06T04:11:23.515Z,6.480
2023-04-06T04:12:23.473Z,6.454
2023-04-06T04:13:22.475Z,6.449
2023-04-06T04:14:23.368Z,6.440
2023-04-06T04:15:23.695Z,6.454
2023-04-06T04:16:24.235Z,6.394
2023-04-06T04:17:23.454Z,6.349
2023-04-06T04:18:23.643Z,6.339
2023-04-06T04:19:28.601Z,6.321
2023-04-06T04:20:23.774Z,6.300
2023-04-06T04:21:22.606Z,6.304
2023-04-06T04:22:23.720Z,6.310
2023-04-06T04:23:23.666Z,6.304
2023-04-06T04:24:23.490Z,6.275
2023-04-06T04:25:24.189Z,6.263
2023-04-06T04:26:23.325Z,6.277
2023-04-06T04:27:23.261Z,6.255
2023-04-06T04:28:22.719Z,6.255
2023-04-06T04:29:23.257Z,6.255
2023-04-06T04:30:23.572Z,6.260
2023-04-06T04:31:22.758Z,6.269
2023-04-06T04:32:23.642Z,6.275
2023-04-06T04:33:23.388Z,6.264
2023-04-06T04:34:23.188Z,6.244
2023-04-06T04:35:23.829Z,6.255
2023-04-06T04:36:23.476Z,6.219
2023-04-06T04:37:23.339Z,6.25
2023-04-06T04:38:23.298Z,6.239
2023-04-06T04:39:23.503Z,6.219
2023-04-06T04:40:23.240Z,6.235
2023-04-06T04:41:22.776Z,6.235
2023-04-06T04:42:22.907Z,6.210
2023-04-06T04:43:24.015Z,6.210
2023-04-06T04:44:23.471Z,6.199
2023-04-06T04:45:23.680Z,6.224
2023-04-06T04:46:24.270Z,6.183
2023-04-06T04:47:23.651Z,6.189
2023-04-06T04:48:23.729Z,6.183
2023-04-06T04:49:24.712Z,6.171
2023-04-06T04:50:24.460Z,6.178
2023-04-06T04:51:24.057Z,6.189
2023-04-06T04:52:24.235Z,6.165
2023-04-06T04:53:25.936Z,6.204
2023-04-06T04:54:25.300Z,6.219
2023-04-06T04:55:24.972Z,6.165
2023-04-06T04:56:25.492Z,6.165
2023-04-06T04:57:26.414Z,6.165
2023-04-06T04:58:26.667Z,6.165
2023-04-06T04:59:25.268Z,6.159
2023-04-06T05:00:24.639Z,6.137
2023-04-06T05:01:23.837Z,6.149
2023-04-06T05:02:24.011Z,6.143
2023-04-06T05:03:23.620Z,6.131
2023-04-06T05:04:23.662Z,6.137
2023-04-06T05:05:24.388Z,6.155
2023-04-06T05:06:24.170Z,6.137
2023-04-06T05:07:24.115Z,6.177
2023-04-06T05:08:23.978Z,6.171
2023-04-06T05:09:23.821Z,6.171
2023-04-06T05:10:23.701Z,6.190
2023-04-06T05:11:24.261Z,6.176
2023-04-06T05:12:23.397Z,6.230
2023-04-06T05:13:23.553Z,6.264
2023-04-06T05:14:23.874Z,6.284
2023-04-06T05:15:24.626Z,6.304
2023-04-06T05:16:23.778Z,6.315
2023-04-06T05:17:24.333Z,6.339
2023-04-06T05:18:23.242Z,6.425
2023-04-06T05:19:24.018Z,6.429
2023-04-06T05:20:23.456Z,6.465
2023-04-06T05:21:23.605Z,6.525
2023-04-06T05:22:23.498Z,6.539
2023-04-06T05:23:23.527Z,6.599
2023-04-06T05:24:23.567Z,6.599
2023-04-06T05:25:23.420Z,6.631
2023-04-06T05:26:23.849Z,6.703
2023-04-06T05:27:23.523Z,6.755
2023-04-06T05:28:23.730Z,6.784
2023-04-06T05:29:23.400Z,6.822
2023-04-06T05:30:23.718Z,6.872
2023-04-06T05:31:23.212Z,6.925
2023-04-06T05:32:23.020Z,6.965
2023-04-06T05:33:24.117Z,7.016
2023-04-06T05:34:23.827Z,7.046
2023-04-06T05:35:24.034Z,7.105
2023-04-06T05:36:24.172Z,7.182
2023-04-06T05:37:23.417Z,7.231
2023-04-06T05:38:23.121Z,7.296
2023-04-06T05:39:23.891Z,7.341
2023-04-06T05:40:23.310Z,7.401
2023-04-06T05:41:23.656Z,7.467
2023-04-06T05:42:22.802Z,7.519
2023-04-06T05:43:23.344Z,7.583
2023-04-06T05:44:23.456Z,7.639
2023-04-06T05:45:24.137Z,7.699
2023-04-06T05:46:23.726Z,7.772
2023-04-06T05:47:23.860Z,7.877
2023-04-06T05:48:23.866Z,7.940
2023-04-06T05:49:23.441Z,8.005
2023-04-06T05:50:23.947Z,8.095
2023-04-06T05:51:23.824Z,8.182
2023-04-06T05:52:23.872Z,8.270
2023-04-06T05:53:23.947Z,8.373
2023-04-06T05:54:23.983Z,8.439
2023-04-06T05:55:24.169Z,8.545
2023-04-06T05:56:23.554Z,8.649
2023-04-06T05:57:23.186Z,8.821
2023-04-06T05:58:23.848Z,8.925
2023-04-06T05:59:23.347Z,9.039
2023-04-06T06:00:23.783Z,9.137
2023-04-06T06:01:24.357Z,9.260
2023-04-06T06:02:24.262Z,9.387
2023-04-06T06:03:23.746Z,9.489
2023-04-06T06:04:23.596Z,9.539
2023-04-06T06:05:23.475Z,9.637
2023-04-06T06:06:23.336Z,9.720
2023-04-06T06:07:23.630Z,9.812
2023-04-06T06:08:23.493Z,9.861
2023-04-06T06:09:23.403Z,9.944
2023-04-06T06:10:23.386Z,10.09
2023-04-06T06:11:22.770Z,10.25
2023-04-06T06:12:23.460Z,10.43
2023-04-06T06:13:23.368Z,10.57
2023-04-06T06:14:23.300Z,10.74
2023-04-06T06:15:24.479Z,10.90
2023-04-06T06:16:23.463Z,11.05
2023-04-06T06:17:23.887Z,11.19
2023-04-06T06:18:23.233Z,11.36
2023-04-06T06:19:23.059Z,11.50
2023-04-06T06:20:23.419Z,11.57
2023-04-06T06:21:24.048Z,11.70
2023-04-06T06:22:23.886Z,11.80
2023-04-06T06:23:23.496Z,11.87
2023-04-06T06:24:23.208Z,11.96
2023-04-06T06:25:23.833Z,12.01
2023-04-06T06:26:23.204Z,12.09
2023-04-06T06:27:23.329Z,12.16
2023-04-06T06:28:23.153Z,12.23
2023-04-06T06:29:23.374Z,12.30
2023-04-06T06:30:23.754Z,12.35
2023-04-06T06:31:23.749Z,12.44
2023-04-06T06:32:23.865Z,12.5
2023-04-06T06:33:23.386Z,12.56
2023-04-06T06:34:24.208Z,12.60
2023-04-06T06:35:24.426Z,12.67
2023-04-06T06:36:23.239Z,12.75
2023-04-06T06:37:22.993Z,12.82
2023-04-06T06:38:24.073Z,12.87
2023-04-06T06:39:23.734Z,12.94
2023-04-06T06:40:28.690Z,13.07
2023-04-06T06:41:23.157Z,13.11
2023-04-06T06:42:25.096Z,13.15
2023-04-06T06:43:23.373Z,13.18
2023-04-06T06:44:23.161Z,13.24
2023-04-06T06:45:24.203Z,13.30
2023-04-06T06:46:23.768Z,13.35
2023-04-06T06:47:24.195Z,13.43
2023-04-06T06:48:23.763Z,13.51
2023-04-06T06:49:23.702Z,13.57
2023-04-06T06:50:23.787Z,13.62
2023-04-06T06:51:23.872Z,13.67
2023-04-06T06:52:31.105Z,13.73
2023-04-06T06:53:23.043Z,13.77
2023-04-06T06:54:23.162Z,13.83
2023-04-06T06:55:23.909Z,13.85
2023-04-06T06:56:24.474Z,13.89
2023-04-06T06:57:23.453Z,13.93
2023-04-06T06:58:23.531Z,13.97
2023-04-06T06:59:23.135Z,14.02
2023-04-06T07:00:24.304Z,14.07
2023-04-06T07:01:23.918Z,14.13
2023-04-06T07:02:37.196Z,14.16
2023-04-06T07:03:23.420Z,14.22
2023-04-06T07:04:23.351Z,14.28
2023-04-06T07:05:27.659Z,14.31
2023-04-06T07:06:23.626Z,14.34
2023-04-06T07:07:24.011Z,14.43
2023-04-06T07:08:23.558Z,14.46
2023-04-06T07:09:23.602Z,14.49
2023-04-06T07:10:23.475Z,14.53
2023-04-06T07:11:23.025Z,14.56
2023-04-06T07:12:24.130Z,14.58
2023-04-06T07:13:23.059Z,14.64
2023-04-06T07:14:23.912Z,14.71
2023-04-06T07:15:23.624Z,14.76
2023-04-06T07:16:23.726Z,14.78
2023-04-06T07:17:23.868Z,14.78
2023-04-06T07:18:23.277Z,14.77
2023-04-06T07:19:23.269Z,14.80
2023-04-06T07:20:23.822Z,14.88
2023-04-06T07:21:23.931Z,14.92
2023-04-06T07:22:23.990Z,14.97
2023-04-06T07:23:23.260Z,15.03
2023-04-06T07:24:23.082Z,15.07
2023-04-06T07:25:25.709Z,15.11
2023-04-06T07:26:23.855Z,15.17
2023-04-06T07:27:24.745Z,15.25
2023-04-06T07:28:24.203Z,15.29
2023-04-06T07:29:23.648Z,15.36
2023-04-06T07:30:23.829Z,15.40
2023-04-06T07:31:24.133Z,15.43
2023-04-06T07:32:24.390Z,15.48
2023-04-06T07:33:23.932Z,15.56
2023-04-06T07:34:23.608Z,15.59
2023-04-06T07:35:23.990Z,15.64
2023-04-06T07:36:23.265Z,15.68
2023-04-06T07:37:23.982Z,15.75
2023-04-06T07:38:23.817Z,15.80
2023-04-06T07:39:23.762Z,15.85
2023-04-06T07:40:23.540Z,15.86
2023-04-06T07:41:23.492Z,15.89
2023-04-06T07:42:23.806Z,15.86
2023-04-06T07:43:23.828Z,15.87
2023-04-06T07:44:23.854Z,15.93
2023-04-06T07:45:23.786Z,15.94
2023-04-06T07:46:23.276Z,15.94
2023-04-06T07:47:23.731Z,15.96
2023-04-06T07:48:23.822Z,15.97
2023-04-06T07:49:23.489Z,15.99
2023-04-06T07:50:23.609Z,15.94
2023-04-06T07:51:23.501Z,15.93
2023-04-06T07:52:23.854Z,15.95
2023-04-06T07:53:23.931Z,15.99
2023-04-06T07:54:23.843Z,16.03
2023-04-06T07:55:24.339Z,16.06
2023-04-06T07:56:23.784Z,16.03
2023-04-06T07:57:24.312Z,16.06
2023-04-06T07:58:23.679Z,16.11
2023-04-06T07:59:22.885Z,16.17
2023-04-06T08:00:24.593Z,16.23
2023-04-06T08:01:23.911Z,16.30
2023-04-06T08:02:24.089Z,16.31
2023-04-06T08:03:23.944Z,16.38
2023-04-06T08:04:23.442Z,16.48
2023-04-06T08:05:23.784Z,16.53
2023-04-06T08:06:23.687Z,16.59
2023-04-06T08:07:23.806Z,16.65
2023-04-06T08:08:23.920Z,16.72
2023-04-06T08:09:23.901Z,16.78
2023-04-06T08:10:24.118Z,16.82
2023-04-06T08:11:24.018Z,16.87
2023-04-06T08:12:24.045Z,16.92
2023-04-06T08:13:24.435Z,17.01
2023-04-06T08:14:24.135Z,17.01
2023-04-06T08:15:23.778Z,17.05
2023-04-06T08:16:24.134Z,17.06
2023-04-06T08:17:23.356Z,17.14
2023-04-06T08:18:23.747Z,17.21
2023-04-06T08:19:23.949Z,17.07
2023-04-06T08:20:23.773Z,17.20
2023-04-06T08:21:23.672Z,17.32
2023-04-06T08:22:23.405Z,17.36
2023-04-06T08:23:23.656Z,17.35
2023-04-06T08:24:24.024Z,17.38
2023-04-06T08:25:23.920Z,17.43
2023-04-06T08:26:23.947Z,17.45
2023-04-06T08:27:23.266Z,17.51
2023-04-06T08:28:24.298Z,17.55
2023-04-06T08:29:23.672Z,17.60
2023-04-06T08:30:24.110Z,17.63
2023-04-06T08:31:23.395Z,17.62
2023-04-06T08:32:23.643Z,17.70
2023-04-06T08:33:23.620Z,17.77
2023-04-06T08:34:24.611Z,17.78
2023-04-06T08:35:24.256Z,17.78
2023-04-06T08:36:23.932Z,17.90
2023-04-06T08:37:23.646Z,17.97
2023-04-06T08:38:23.905Z,17.98
2023-04-06T08:39:23.768Z,18.05
2023-04-06T08:40:23.125Z,18.14
2023-04-06T08:41:24.622Z,18.22
2023-04-06T08:42:23.822Z,18.30
2023-04-06T08:43:23.361Z,18.43
2023-04-06T08:44:23.885Z,18.54
2023-04-06T08:45:24.124Z,18.65
2023-04-06T08:46:23.564Z,18.78
2023-04-06T08:47:24.953Z,18.88
2023-04-06T08:48:23.952Z,18.86
2023-04-06T08:49:23.567Z,18.94
2023-04-06T08:50:23.443Z,19.01
2023-04-06T08:51:23.553Z,19.07
2023-04-06T08:52:23.094Z,19.14
2023-04-06T08:53:24.422Z,19.19
2023-04-06T08:54:23.633Z,19.25
2023-04-06T08:55:24.211Z,19.29
2023-04-06T08:56:23.340Z,19.36
2023-04-06T08:57:23.079Z,19.44
2023-04-06T08:58:35.236Z,19.42
2023-04-06T08:59:23.745Z,19.42
2023-04-06T09:00:23.610Z,19.44
2023-04-06T09:01:23.434Z,19.49
2023-04-06T09:02:23.268Z,19.50
2023-04-06T09:03:23.223Z,19.51
2023-04-06T09:04:24.003Z,19.51
2023-04-06T09:05:23.068Z,19.48
2023-04-06T09:06:23.360Z,19.51
2023-04-06T09:07:23.447Z,19.51
2023-04-06T09:08:24.072Z,19.54
2023-04-06T09:09:24.759Z,19.53
2023-04-06T09:10:24.166Z,19.51
2023-04-06T09:11:28.232Z,19.54
2023-04-06T09:12:23.247Z,19.57
2023-04-06T09:13:22.875Z,19.62
2023-04-06T09:14:23.777Z,19.63
2023-04-06T09:15:24.816Z,19.65
2023-04-06T09:16:24.364Z,19.68
2023-04-06T09:17:23.494Z,19.69
2023-04-06T09:18:23.518Z,19.70
2023-04-06T09:19:23.396Z,19.75
2023-04-06T09:20:23.676Z,19.76
2023-04-06T09:21:26.027Z,19.83
2023-04-06T09:22:23.335Z,19.79
2023-04-06T09:23:23.833Z,19.76
2023-04-06T09:24:23.955Z,19.78
2023-04-06T09:25:23.732Z,19.79
2023-04-06T09:26:23.552Z,19.82
2023-04-06T09:27:23.378Z,19.82
2023-04-06T09:28:23.154Z,19.82
2023-04-06T09:29:24.041Z,19.88
2023-04-06T09:30:24.235Z,19.88
2023-04-06T09:31:24.148Z,19.92
2023-04-06T09:32:23.161Z,19.92
2023-04-06T09:33:23.977Z,19.94
2023-04-06T09:34:23.352Z,19.99
2023-04-06T09:35:23.251Z,20
2023-04-06T09:36:23.465Z,20.02
2023-04-06T09:37:23.352Z,20.02
2023-04-06T09:38:24.032Z,20.02
2023-04-06T09:39:42.543Z,20.04
2023-04-06T09:40:23.527Z,20.09
2023-04-06T09:41:23.023Z,20.14
2023-04-06T09:42:23.580Z,20.19
2023-04-06T09:43:42.994Z,20.25
2023-04-06T09:44:23.188Z,20.28
2023-04-06T09:45:43.184Z,20.29
2023-04-06T09:46:23.423Z,20.37
2023-04-06T09:47:42.402Z,20.39
2023-04-06T09:48:23.946Z,20.45
2023-04-06T09:49:22.970Z,20.5
2023-04-06T09:50:23.325Z,20.54
2023-04-06T09:51:23.401Z,20.54
2023-04-06T09:52:23.964Z,20.54
2023-04-06T09:53:23.111Z,20.55
2023-04-06T09:54:23.179Z,20.64
2023-04-06T09:55:23.182Z,20.69
2023-04-06T09:56:23.488Z,20.65
2023-04-06T09:57:23.396Z,20.63
2023-04-06T09:58:23.522Z,20.67
2023-04-06T09:59:23.890Z,20.67
2023-04-06T10:00:24.522Z,20.73
2023-04-06T10:01:23.149Z,20.71
2023-04-06T10:02:23.320Z,20.72
2023-04-06T10:03:23.305Z,20.77
2023-04-06T10:04:22.927Z,20.78
2023-04-06T10:05:23.594Z,20.82
2023-04-06T10:06:23.211Z,20.80
2023-04-06T10:07:23.744Z,20.87
2023-04-06T10:08:23.828Z,20.90
2023-04-06T10:09:23.698Z,20.97
2023-04-06T10:10:23.539Z,21.04
2023-04-06T10:11:23.359Z,21.13
2023-04-06T10:12:23.107Z,21.17
2023-04-06T10:13:23.467Z,21.05
2023-04-06T10:14:23.368Z,21.11
2023-04-06T10:15:23.997Z,21.15
2023-04-06T10:16:23.245Z,21.20
2023-04-06T10:17:23.878Z,21.16
2023-04-06T10:18:23.814Z,21.15
2023-04-06T10:19:23.942Z,21.21
2023-04-06T10:20:23.515Z,21.28
2023-04-06T10:21:23.529Z,21.30
2023-04-06T10:22:23.598Z,21.33
2023-04-06T10:23:23.184Z,21.37
2023-04-06T10:24:23.779Z,21.40
2023-04-06T10:25:23.855Z,21.43
2023-04-06T10:26:23.644Z,21.45
2023-04-06T10:27:23.938Z,21.40
2023-04-06T10:28:23.627Z,21.39
2023-04-06T10:29:23.548Z,21.43
2023-04-06T10:30:24.289Z,21.47
2023-04-06T10:31:23.397Z,21.51
2023-04-06T10:32:23.397Z,21.53
2023-04-06T10:33:23.335Z,21.55
2023-04-06T10:34:23.376Z,21.55
2023-04-06T10:35:23.813Z,21.57
2023-04-06T10:36:23.724Z,21.59
2023-04-06T10:37:23.704Z,21.59
2023-04-06T10:38:23.930Z,21.63
2023-04-06T10:39:23.711Z,21.62
2023-04-06T10:40:23.740Z,21.60
2023-04-06T10:41:23.244Z,21.61
2023-04-06T10:42:23.975Z,21.66
2023-04-06T10:43:23.452Z,21.69
2023-04-06T10:44:23.842Z,21.64
2023-04-06T10:45:24.197Z,21.63
2023-04-06T10:46:23.436Z,21.62
2023-04-06T10:47:23.610Z,21.53
2023-04-06T10:48:23.366Z,21.58
2023-04-06T10:49:23.109Z,21.51
2023-04-06T10:50:23.664Z,21.5
2023-04-06T10:51:23.482Z,21.45
2023-04-06T10:52:23.405Z,21.43
2023-04-06T10:53:23.248Z,21.41
2023-04-06T10:54:23.762Z,21.40
2023-04-06T10:55:23.425Z,21.39
2023-04-06T10:56:23.612Z,21.37
2023-04-06T10:57:23.543Z,21.40
2023-04-06T10:58:23.531Z,21.39
2023-04-06T10:59:23.753Z,21.39
2023-04-06T11:00:25.266Z,21.5
2023-04-06T11:01:23.658Z,21.52
2023-04-06T11:02:23.614Z,21.54
2023-04-06T11:03:23.649Z,21.54
2023-04-06T11:04:23.873Z,21.62
2023-04-06T11:05:23.434Z,21.66
2023-04-06T11:06:22.840Z,21.68
2023-04-06T11:07:23.401Z,21.70
2023-04-06T11:08:23.265Z,21.69
2023-04-06T11:09:23.904Z,21.70
2023-04-06T11:10:23.167Z,21.72
2023-04-06T11:11:23.448Z,21.74
2023-04-06T11:12:23.400Z,21.80
2023-04-06T11:13:23.281Z,21.86
2023-04-06T11:14:23.341Z,21.90
2023-04-06T11:15:23.558Z,21.98
2023-04-06T11:16:23.734Z,22.02
2023-04-06T11:17:23.080Z,22.09
2023-04-06T11:18:23.320Z,22.19
2023-04-06T11:19:23.691Z,22.25
2023-04-06T11:20:23.528Z,22.30
2023-04-06T11:21:23.568Z,22.34
2023-04-06T11:22:22.974Z,22.38
2023-04-06T11:23:23.314Z,22.43
2023-04-06T11:24:23.090Z,22.45
2023-04-06T11:25:23.225Z,22.46
2023-04-06T11:26:23.998Z,22.47
2023-04-06T11:27:23.893Z,22.47
2023-04-06T11:28:23.667Z,22.49
2023-04-06T11:29:23.796Z,22.52
2023-04-06T11:30:28.930Z,22.48
2023-04-06T11:31:23.777Z,22.47
2023-04-06T11:32:28.494Z,22.45
2023-04-06T11:33:22.968Z,22.44
2023-04-06T11:34:28.595Z,22.39
2023-04-06T11:35:23.408Z,22.38
2023-04-06T11:36:28.258Z,22.43
2023-04-06T11:37:23.372Z,22.44
2023-04-06T11:38:28.477Z,22.47
2023-04-06T11:39:23.873Z,22.45
2023-04-06T11:40:23.598Z,22.37
2023-04-06T11:41:23.418Z,22.37
2023-04-06T11:42:23.512Z,22.45
2023-04-06T11:43:23.310Z,22.43
2023-04-06T11:44:24.098Z,22.42
2023-04-06T11:45:23.582Z,22.31
2023-04-06T11:46:31.199Z,22.26
2023-04-06T11:47:23.614Z,22.27
2023-04-06T11:48:24.633Z,22.31
2023-04-06T11:49:23.659Z,22.27
2023-04-06T11:50:23.453Z,22.32
2023-04-06T11:51:23.258Z,22.37
2023-04-06T11:52:37.677Z,22.29
2023-04-06T11:53:23.253Z,22.31
2023-04-06T11:54:23.685Z,22.29
2023-04-06T11:55:23.546Z,22.23
2023-04-06T11:56:23.361Z,22.19
2023-04-06T11:57:23.295Z,22.25
2023-04-06T11:58:23.561Z,22.20
2023-04-06T11:59:23.851Z,22.20
2023-04-06T12:00:24.083Z,22.22
2023-04-06T12:01:24.129Z,22.23
2023-04-06T12:02:38.518Z,22.35
2023-04-06T12:03:23.943Z,22.37
2023-04-06T12:04:42.642Z,22.35
2023-04-06T12:05:23.972Z,22.41
2023-04-06T12:06:23.380Z,22.48
2023-04-06T12:07:23.312Z,22.46
2023-04-06T12:08:23.640Z,22.51
2023-04-06T12:09:23.766Z,22.5
2023-04-06T12:10:24.005Z,22.54
2023-04-06T12:11:24.054Z,22.56
2023-04-06T12:12:23.953Z,22.56
2023-04-06T12:13:23.577Z,22.54
2023-04-06T12:14:23.387Z,22.53
2023-04-06T12:15:23.511Z,22.55
2023-04-06T12:16:23.829Z,22.57
2023-04-06T12:17:24.010Z,22.61
2023-04-06T12:18:24.099Z,22.68
2023-04-06T12:19:23.619Z,22.75
2023-04-06T12:20:27.104Z,22.77
2023-04-06T12:21:23.111Z,22.82
2023-04-06T12:22:23.178Z,22.89
2023-04-06T12:23:23.128Z,22.94
2023-04-06T12:24:23.880Z,22.96
2023-04-06T12:25:24.159Z,23
2023-04-06T12:26:23.283Z,22.96
2023-04-06T12:27:24.412Z,22.98
2023-04-06T12:28:23.705Z,23.01
2023-04-06T12:29:24.765Z,22.95
2023-04-06T12:31:27.009Z,23
2023-04-06T12:32:23.483Z,22.92
2023-04-06T12:33:23.971Z,22.92
2023-04-06T12:34:24.297Z,22.92
2023-04-06T12:35:23.276Z,22.89
2023-04-06T12:36:23.573Z,22.80
2023-04-06T12:37:23.498Z,22.75
2023-04-06T12:38:23.051Z,22.63
2023-04-06T12:39:23.900Z,22.59
2023-04-06T12:40:24.022Z,22.30
2023-04-06T12:41:23.644Z,22.12
2023-04-06T12:42:23.737Z,22.20
2023-04-06T12:43:23.774Z,22.20
2023-04-06T12:44:25.406Z,22.19
2023-04-06T12:45:23.445Z,22.17
2023-04-06T12:46:23.354Z,22.04
2023-04-06T12:47:23.278Z,21.98
2023-04-06T12:48:23.297Z,21.95
2023-04-06T12:49:23.268Z,21.84
2023-04-06T12:50:23.543Z,21.78
2023-04-06T12:51:23.146Z,21.69
2023-04-06T12:52:23.940Z,21.46
2023-04-06T12:53:23.311Z,21.49
2023-04-06T12:54:23.736Z,21.44
2023-04-06T12:55:23.452Z,21.43